sensor_id;sensor_type;location;lat;lon;timestamp;P1;durP1;ratioP1;P2;durP2;ratioP2
11287;SDS011;5700;50.996;7.044;2023-01-19T00:00:18;9.75;;;4.95;;
11287;SDS011;5700;50.996;7.044;2023-01-19T00:03:19;7.60;;;3.78;;
11287;SDS011;5700;50.996;7.044;2023-01-19T00:06:21;10.05;;;4.28;;
11287;SDS011;5700;50.996;7.044;2023-01-19T00:09:22;13.68;;;5.15;;
11287;SDS011;5700;50.996;7.044;2023-01-19T00:12:25;8.77;;;4.28;;
11287;SDS011;5700;50.996;7.044;2023-01-19T00:15:27;11.05;;;5.25;;
11287;SDS011;5700;50.996;7.044;2023-01-19T00:18:28;11.93;;;4.82;;
11287;SDS011;5700;50.996;7.044;2023-01-19T00:21:29;10.48;;;4.00;;
11287;SDS011;5700;50.996;7.044;2023-01-19T00:24:31;8.70;;;4.88;;
11287;SDS011;5700;50.996;7.044;2023-01-19T00:27:34;11.93;;;4.80;;
11287;SDS011;5700;50.996;7.044;2023-01-19T00:30:36;7.60;;;4.90;;
11287;SDS011;5700;50.996;7.044;2023-01-19T00:33:38;9.52;;;4.45;;
11287;SDS011;5700;50.996;7.044;2023-01-19T00:36:39;8.85;;;4.72;;
11287;SDS011;5700;50.996;7.044;2023-01-19T00:39:41;9.77;;;5.13;;
11287;SDS011;5700;50.996;7.044;2023-01-19T00:42:44;11.98;;;4.65;;
11287;SDS011;5700;50.996;7.044;2023-01-19T00:45:47;11.68;;;4.78;;
11287;SDS011;5700;50.996;7.044;2023-01-19T00:48:48;11.95;;;5.30;;
11287;SDS011;5700;50.996;7.044;2023-01-19T00:51:50;11.13;;;4.75;;
11287;SDS011;5700;50.996;7.044;2023-01-19T00:54:51;10.30;;;4.72;;
11287;SDS011;5700;50.996;7.044;2023-01-19T00:57:54;9.30;;;4.35;;
11287;SDS011;5700;50.996;7.044;2023-01-19T01:00:55;10.93;;;5.50;;
11287;SDS011;5700;50.996;7.044;2023-01-19T01:04:02;10.10;;;4.82;;
11287;SDS011;5700;50.996;7.044;2023-01-19T01:07:03;13.65;;;6.32;;
11287;SDS011;5700;50.996;7.044;2023-01-19T01:10:05;11.02;;;5.53;;
11287;SDS011;5700;50.996;7.044;2023-01-19T01:13:09;9.32;;;5.25;;
11287;SDS011;5700;50.996;7.044;2023-01-19T01:16:12;15.35;;;6.55;;
11287;SDS011;5700;50.996;7.044;2023-01-19T01:19:14;14.20;;;5.32;;
11287;SDS011;5700;50.996;7.044;2023-01-19T01:22:16;16.17;;;5.55;;
11287;SDS011;5700;50.996;7.044;2023-01-19T01:25:19;11.13;;;5.80;;
11287;SDS011;5700;50.996;7.044;2023-01-19T01:28:23;10.45;;;5.22;;
11287;SDS011;5700;50.996;7.044;2023-01-19T01:31:24;13.07;;;5.10;;
11287;SDS011;5700;50.996;7.044;2023-01-19T01:34:26;11.98;;;4.80;;
11287;SDS011;5700;50.996;7.044;2023-01-19T01:37:28;10.02;;;5.13;;
11287;SDS011;5700;50.996;7.044;2023-01-19T01:40:29;14.20;;;4.93;;
11287;SDS011;5700;50.996;7.044;2023-01-19T01:46:49;13.40;;;5.38;;
11287;SDS011;5700;50.996;7.044;2023-01-19T01:49:52;8.68;;;5.05;;
11287;SDS011;5700;50.996;7.044;2023-01-19T01:52:58;13.48;;;5.90;;
11287;SDS011;5700;50.996;7.044;2023-01-19T01:56:02;9.30;;;5.10;;
11287;SDS011;5700;50.996;7.044;2023-01-19T01:59:07;10.35;;;5.20;;
11287;SDS011;5700;50.996;7.044;2023-01-19T02:02:11;9.63;;;4.72;;
11287;SDS011;5700;50.996;7.044;2023-01-19T02:05:30;12.10;;;5.13;;
11287;SDS011;5700;50.996;7.044;2023-01-19T02:08:34;8.93;;;4.75;;
11287;SDS011;5700;50.996;7.044;2023-01-19T02:11:51;10.30;;;5.80;;
11287;SDS011;5700;50.996;7.044;2023-01-19T02:15:15;11.98;;;5.78;;
11287;SDS011;5700;50.996;7.044;2023-01-19T02:18:17;11.13;;;5.45;;
11287;SDS011;5700;50.996;7.044;2023-01-19T02:21:19;11.18;;;5.20;;
11287;SDS011;5700;50.996;7.044;2023-01-19T02:24:24;8.90;;;4.55;;
11287;SDS011;5700;50.996;7.044;2023-01-19T02:27:26;12.82;;;5.20;;
11287;SDS011;5700;50.996;7.044;2023-01-19T02:30:27;10.80;;;5.65;;
11287;SDS011;5700;50.996;7.044;2023-01-19T02:33:29;10.32;;;5.15;;
11287;SDS011;5700;50.996;7.044;2023-01-19T02:36:32;8.00;;;4.38;;
11287;SDS011;5700;50.996;7.044;2023-01-19T02:39:38;10.63;;;5.43;;
11287;SDS011;5700;50.996;7.044;2023-01-19T02:42:42;10.13;;;5.18;;
11287;SDS011;5700;50.996;7.044;2023-01-19T02:45:45;10.05;;;5.25;;
11287;SDS011;5700;50.996;7.044;2023-01-19T02:48:47;9.35;;;4.85;;
11287;SDS011;5700;50.996;7.044;2023-01-19T02:51:48;7.55;;;4.10;;
11287;SDS011;5700;50.996;7.044;2023-01-19T02:54:55;11.07;;;4.72;;
11287;SDS011;5700;50.996;7.044;2023-01-19T02:58:03;10.55;;;4.75;;
11287;SDS011;5700;50.996;7.044;2023-01-19T03:01:11;11.60;;;5.63;;
11287;SDS011;5700;50.996;7.044;2023-01-19T03:04:16;15.93;;;5.10;;
11287;SDS011;5700;50.996;7.044;2023-01-19T03:07:26;11.27;;;5.03;;
11287;SDS011;5700;50.996;7.044;2023-01-19T03:10:36;10.02;;;4.68;;
11287;SDS011;5700;50.996;7.044;2023-01-19T03:13:43;11.70;;;5.35;;
11287;SDS011;5700;50.996;7.044;2023-01-19T03:16:49;10.55;;;5.18;;
11287;SDS011;5700;50.996;7.044;2023-01-19T03:19:54;9.15;;;4.40;;
11287;SDS011;5700;50.996;7.044;2023-01-19T03:22:57;10.00;;;4.75;;
11287;SDS011;5700;50.996;7.044;2023-01-19T03:26:02;9.57;;;3.72;;
11287;SDS011;5700;50.996;7.044;2023-01-19T03:29:05;9.82;;;4.75;;
11287;SDS011;5700;50.996;7.044;2023-01-19T03:32:08;16.25;;;5.15;;
11287;SDS011;5700;50.996;7.044;2023-01-19T03:35:13;7.00;;;4.38;;
11287;SDS011;5700;50.996;7.044;2023-01-19T03:38:16;9.40;;;4.43;;
11287;SDS011;5700;50.996;7.044;2023-01-19T03:41:20;11.75;;;4.70;;
11287;SDS011;5700;50.996;7.044;2023-01-19T03:44:23;9.43;;;4.82;;
11287;SDS011;5700;50.996;7.044;2023-01-19T03:47:26;9.18;;;4.78;;
11287;SDS011;5700;50.996;7.044;2023-01-19T03:50:28;9.60;;;4.78;;
11287;SDS011;5700;50.996;7.044;2023-01-19T03:53:30;7.32;;;4.20;;
11287;SDS011;5700;50.996;7.044;2023-01-19T03:56:33;9.63;;;4.25;;
11287;SDS011;5700;50.996;7.044;2023-01-19T03:59:34;12.75;;;4.85;;
11287;SDS011;5700;50.996;7.044;2023-01-19T04:02:36;8.15;;;4.47;;
11287;SDS011;5700;50.996;7.044;2023-01-19T04:05:37;8.57;;;4.55;;
11287;SDS011;5700;50.996;7.044;2023-01-19T04:08:39;9.05;;;4.20;;
11287;SDS011;5700;50.996;7.044;2023-01-19T04:11:42;8.38;;;4.30;;
11287;SDS011;5700;50.996;7.044;2023-01-19T04:14:43;9.07;;;4.50;;
11287;SDS011;5700;50.996;7.044;2023-01-19T04:17:44;8.00;;;4.43;;
11287;SDS011;5700;50.996;7.044;2023-01-19T04:20:46;10.38;;;4.70;;
11287;SDS011;5700;50.996;7.044;2023-01-19T04:23:48;7.93;;;3.95;;
11287;SDS011;5700;50.996;7.044;2023-01-19T04:26:51;9.00;;;4.22;;
11287;SDS011;5700;50.996;7.044;2023-01-19T04:29:53;10.18;;;4.93;;
11287;SDS011;5700;50.996;7.044;2023-01-19T04:32:54;8.52;;;4.93;;
11287;SDS011;5700;50.996;7.044;2023-01-19T04:35:57;7.78;;;3.92;;
11287;SDS011;5700;50.996;7.044;2023-01-19T04:38:58;8.85;;;4.80;;
11287;SDS011;5700;50.996;7.044;2023-01-19T04:42:01;7.03;;;3.90;;
11287;SDS011;5700;50.996;7.044;2023-01-19T04:45:03;8.93;;;4.30;;
11287;SDS011;5700;50.996;7.044;2023-01-19T04:48:05;15.13;;;5.20;;
11287;SDS011;5700;50.996;7.044;2023-01-19T04:51:06;9.27;;;4.80;;
11287;SDS011;5700;50.996;7.044;2023-01-19T04:54:08;8.95;;;4.75;;
11287;SDS011;5700;50.996;7.044;2023-01-19T04:57:11;9.48;;;4.53;;
11287;SDS011;5700;50.996;7.044;2023-01-19T05:00:13;9.15;;;4.35;;
11287;SDS011;5700;50.996;7.044;2023-01-19T05:03:14;6.78;;;3.80;;
11287;SDS011;5700;50.996;7.044;2023-01-19T05:06:16;10.02;;;4.25;;
11287;SDS011;5700;50.996;7.044;2023-01-19T05:09:17;8.02;;;4.28;;
11287;SDS011;5700;50.996;7.044;2023-01-19T05:12:20;7.35;;;3.95;;
11287;SDS011;5700;50.996;7.044;2023-01-19T05:15:22;9.15;;;4.32;;
11287;SDS011;5700;50.996;7.044;2023-01-19T05:18:23;6.38;;;3.70;;
11287;SDS011;5700;50.996;7.044;2023-01-19T05:21:25;8.02;;;4.15;;
11287;SDS011;5700;50.996;7.044;2023-01-19T05:24:27;6.70;;;3.83;;
11287;SDS011;5700;50.996;7.044;2023-01-19T05:27:29;7.82;;;4.20;;
11287;SDS011;5700;50.996;7.044;2023-01-19T05:30:31;7.82;;;3.88;;
11287;SDS011;5700;50.996;7.044;2023-01-19T05:33:32;7.18;;;4.20;;
11287;SDS011;5700;50.996;7.044;2023-01-19T05:36:34;7.65;;;4.15;;
11287;SDS011;5700;50.996;7.044;2023-01-19T05:39:35;9.43;;;4.40;;
11287;SDS011;5700;50.996;7.044;2023-01-19T05:42:38;11.73;;;4.35;;
11287;SDS011;5700;50.996;7.044;2023-01-19T05:45:39;10.88;;;4.65;;
11287;SDS011;5700;50.996;7.044;2023-01-19T05:48:41;10.15;;;4.03;;
11287;SDS011;5700;50.996;7.044;2023-01-19T05:51:44;9.82;;;4.18;;
11287;SDS011;5700;50.996;7.044;2023-01-19T05:54:45;9.65;;;4.18;;
11287;SDS011;5700;50.996;7.044;2023-01-19T05:57:48;11.00;;;4.85;;
11287;SDS011;5700;50.996;7.044;2023-01-19T06:00:49;13.30;;;5.03;;
11287;SDS011;5700;50.996;7.044;2023-01-19T06:03:51;8.77;;;4.22;;
11287;SDS011;5700;50.996;7.044;2023-01-19T06:06:52;9.98;;;4.82;;
11287;SDS011;5700;50.996;7.044;2023-01-19T06:09:54;8.95;;;4.22;;
11287;SDS011;5700;50.996;7.044;2023-01-19T06:12:56;9.55;;;4.45;;
11287;SDS011;5700;50.996;7.044;2023-01-19T06:15:58;12.05;;;4.40;;
11287;SDS011;5700;50.996;7.044;2023-01-19T06:19:00;10.85;;;5.03;;
11287;SDS011;5700;50.996;7.044;2023-01-19T06:22:02;15.80;;;5.47;;
11287;SDS011;5700;50.996;7.044;2023-01-19T06:25:03;10.63;;;5.15;;
11287;SDS011;5700;50.996;7.044;2023-01-19T06:28:06;14.07;;;5.35;;
11287;SDS011;5700;50.996;7.044;2023-01-19T06:31:08;13.30;;;6.18;;
11287;SDS011;5700;50.996;7.044;2023-01-19T06:34:09;11.65;;;5.30;;
11287;SDS011;5700;50.996;7.044;2023-01-19T06:37:11;11.10;;;5.55;;
11287;SDS011;5700;50.996;7.044;2023-01-19T06:40:12;15.43;;;6.60;;
11287;SDS011;5700;50.996;7.044;2023-01-19T06:43:15;17.42;;;6.15;;
11287;SDS011;5700;50.996;7.044;2023-01-19T06:46:17;12.50;;;6.20;;
11287;SDS011;5700;50.996;7.044;2023-01-19T06:49:18;12.38;;;6.68;;
11287;SDS011;5700;50.996;7.044;2023-01-19T06:52:20;13.88;;;6.85;;
11287;SDS011;5700;50.996;7.044;2023-01-19T06:55:21;16.95;;;6.50;;
11287;SDS011;5700;50.996;7.044;2023-01-19T06:58:24;12.75;;;6.15;;
11287;SDS011;5700;50.996;7.044;2023-01-19T07:01:25;11.98;;;5.95;;
11287;SDS011;5700;50.996;7.044;2023-01-19T07:04:27;15.88;;;6.38;;
11287;SDS011;5700;50.996;7.044;2023-01-19T07:07:28;10.95;;;5.53;;
11287;SDS011;5700;50.996;7.044;2023-01-19T07:10:30;11.93;;;6.82;;
11287;SDS011;5700;50.996;7.044;2023-01-19T07:13:33;19.13;;;9.18;;
11287;SDS011;5700;50.996;7.044;2023-01-19T07:16:35;13.55;;;6.13;;
11287;SDS011;5700;50.996;7.044;2023-01-19T07:19:36;14.32;;;5.72;;
11287;SDS011;5700;50.996;7.044;2023-01-19T07:22:38;12.23;;;6.50;;
11287;SDS011;5700;50.996;7.044;2023-01-19T07:25:40;12.00;;;6.63;;
11287;SDS011;5700;50.996;7.044;2023-01-19T07:28:43;13.27;;;6.03;;
11287;SDS011;5700;50.996;7.044;2023-01-19T07:31:44;11.27;;;5.95;;
11287;SDS011;5700;50.996;7.044;2023-01-19T07:34:47;13.13;;;6.95;;
11287;SDS011;5700;50.996;7.044;2023-01-19T07:37:49;13.35;;;7.63;;
11287;SDS011;5700;50.996;7.044;2023-01-19T07:40:50;13.60;;;7.38;;
11287;SDS011;5700;50.996;7.044;2023-01-19T07:43:53;17.55;;;10.68;;
11287;SDS011;5700;50.996;7.044;2023-01-19T07:46:55;12.50;;;6.78;;
11287;SDS011;5700;50.996;7.044;2023-01-19T07:49:56;15.23;;;6.95;;
11287;SDS011;5700;50.996;7.044;2023-01-19T07:53:02;11.05;;;6.63;;
11287;SDS011;5700;50.996;7.044;2023-01-19T07:56:04;14.52;;;7.25;;
11287;SDS011;5700;50.996;7.044;2023-01-19T07:59:09;11.70;;;6.32;;
11287;SDS011;5700;50.996;7.044;2023-01-19T08:02:10;15.43;;;6.60;;
11287;SDS011;5700;50.996;7.044;2023-01-19T08:05:11;11.02;;;5.93;;
11287;SDS011;5700;50.996;7.044;2023-01-19T08:08:14;10.95;;;4.90;;
11287;SDS011;5700;50.996;7.044;2023-01-19T08:11:15;15.70;;;6.85;;
11287;SDS011;5700;50.996;7.044;2023-01-19T08:14:18;13.15;;;6.15;;
11287;SDS011;5700;50.996;7.044;2023-01-19T08:17:19;14.63;;;6.32;;
11287;SDS011;5700;50.996;7.044;2023-01-19T08:20:21;14.40;;;6.78;;
11287;SDS011;5700;50.996;7.044;2023-01-19T08:23:22;15.20;;;7.63;;
11287;SDS011;5700;50.996;7.044;2023-01-19T08:26:25;12.00;;;6.20;;
11287;SDS011;5700;50.996;7.044;2023-01-19T08:29:30;12.70;;;6.68;;
11287;SDS011;5700;50.996;7.044;2023-01-19T08:32:32;12.27;;;6.13;;
11287;SDS011;5700;50.996;7.044;2023-01-19T08:35:35;13.00;;;6.60;;
11287;SDS011;5700;50.996;7.044;2023-01-19T08:38:37;12.32;;;6.38;;
11287;SDS011;5700;50.996;7.044;2023-01-19T08:41:42;14.90;;;6.80;;
11287;SDS011;5700;50.996;7.044;2023-01-19T08:44:45;13.68;;;6.70;;
11287;SDS011;5700;50.996;7.044;2023-01-19T08:47:46;14.45;;;6.80;;
11287;SDS011;5700;50.996;7.044;2023-01-19T08:50:48;11.98;;;5.25;;
11287;SDS011;5700;50.996;7.044;2023-01-19T08:53:50;16.02;;;6.20;;
11287;SDS011;5700;50.996;7.044;2023-01-19T08:56:52;11.43;;;5.88;;
11287;SDS011;5700;50.996;7.044;2023-01-19T08:59:54;12.50;;;5.40;;
11287;SDS011;5700;50.996;7.044;2023-01-19T09:02:56;11.90;;;6.03;;
11287;SDS011;5700;50.996;7.044;2023-01-19T09:05:58;11.95;;;5.78;;
11287;SDS011;5700;50.996;7.044;2023-01-19T09:08:59;11.32;;;6.35;;
11287;SDS011;5700;50.996;7.044;2023-01-19T09:12:01;15.07;;;6.32;;
11287;SDS011;5700;50.996;7.044;2023-01-19T09:15:03;19.00;;;7.50;;
11287;SDS011;5700;50.996;7.044;2023-01-19T09:18:06;11.10;;;6.10;;
11287;SDS011;5700;50.996;7.044;2023-01-19T09:21:09;16.15;;;7.07;;
11287;SDS011;5700;50.996;7.044;2023-01-19T09:24:10;15.35;;;6.20;;
11287;SDS011;5700;50.996;7.044;2023-01-19T09:27:11;16.30;;;7.93;;
11287;SDS011;5700;50.996;7.044;2023-01-19T09:30:14;17.50;;;7.82;;
11287;SDS011;5700;50.996;7.044;2023-01-19T09:33:16;15.05;;;8.02;;
11287;SDS011;5700;50.996;7.044;2023-01-19T09:36:19;20.38;;;7.88;;
11287;SDS011;5700;50.996;7.044;2023-01-19T09:39:20;16.10;;;7.63;;
11287;SDS011;5700;50.996;7.044;2023-01-19T09:42:22;15.32;;;6.90;;
11287;SDS011;5700;50.996;7.044;2023-01-19T09:45:33;19.20;;;8.10;;
11287;SDS011;5700;50.996;7.044;2023-01-19T09:48:40;13.05;;;7.00;;
11287;SDS011;5700;50.996;7.044;2023-01-19T09:51:45;15.00;;;7.03;;
11287;SDS011;5700;50.996;7.044;2023-01-19T09:54:48;19.80;;;8.38;;
11287;SDS011;5700;50.996;7.044;2023-01-19T09:57:53;18.88;;;8.93;;
11287;SDS011;5700;50.996;7.044;2023-01-19T10:00:57;16.55;;;7.45;;
11287;SDS011;5700;50.996;7.044;2023-01-19T10:04:07;20.30;;;8.65;;
11287;SDS011;5700;50.996;7.044;2023-01-19T10:07:38;20.73;;;9.85;;
11287;SDS011;5700;50.996;7.044;2023-01-19T10:10:50;28.42;;;10.50;;
11287;SDS011;5700;50.996;7.044;2023-01-19T10:13:53;33.95;;;15.50;;
11287;SDS011;5700;50.996;7.044;2023-01-19T10:16:58;16.98;;;10.13;;
11287;SDS011;5700;50.996;7.044;2023-01-19T10:20:07;21.95;;;9.73;;
11287;SDS011;5700;50.996;7.044;2023-01-19T10:23:18;24.73;;;9.45;;
11287;SDS011;5700;50.996;7.044;2023-01-19T10:26:26;25.75;;;10.45;;
11287;SDS011;5700;50.996;7.044;2023-01-19T10:29:34;26.65;;;10.93;;
11287;SDS011;5700;50.996;7.044;2023-01-19T10:32:38;21.60;;;9.85;;
11287;SDS011;5700;50.996;7.044;2023-01-19T10:35:39;24.17;;;9.82;;
11287;SDS011;5700;50.996;7.044;2023-01-19T10:38:41;22.17;;;11.02;;
11287;SDS011;5700;50.996;7.044;2023-01-19T10:41:44;23.17;;;10.65;;
11287;SDS011;5700;50.996;7.044;2023-01-19T10:44:48;25.38;;;10.93;;
11287;SDS011;5700;50.996;7.044;2023-01-19T10:47:51;20.73;;;9.82;;
11287;SDS011;5700;50.996;7.044;2023-01-19T10:51:00;27.45;;;11.00;;
11287;SDS011;5700;50.996;7.044;2023-01-19T10:54:02;20.58;;;10.00;;
11287;SDS011;5700;50.996;7.044;2023-01-19T10:57:06;32.97;;;11.05;;
11287;SDS011;5700;50.996;7.044;2023-01-19T11:00:27;18.33;;;8.95;;
11287;SDS011;5700;50.996;7.044;2023-01-19T11:03:31;25.65;;;8.60;;
11287;SDS011;5700;50.996;7.044;2023-01-19T11:06:32;22.23;;;10.68;;
11287;SDS011;5700;50.996;7.044;2023-01-19T11:09:34;28.15;;;12.48;;
11287;SDS011;5700;50.996;7.044;2023-01-19T11:12:38;30.45;;;11.82;;
11287;SDS011;5700;50.996;7.044;2023-01-19T11:15:41;27.98;;;11.98;;
11287;SDS011;5700;50.996;7.044;2023-01-19T11:18:45;26.00;;;11.68;;
11287;SDS011;5700;50.996;7.044;2023-01-19T11:21:46;25.83;;;12.90;;
11287;SDS011;5700;50.996;7.044;2023-01-19T11:24:48;23.63;;;10.82;;
11287;SDS011;5700;50.996;7.044;2023-01-19T11:27:49;27.95;;;11.90;;
11287;SDS011;5700;50.996;7.044;2023-01-19T11:30:53;24.05;;;11.25;;
11287;SDS011;5700;50.996;7.044;2023-01-19T11:33:57;24.23;;;11.25;;
11287;SDS011;5700;50.996;7.044;2023-01-19T11:37:00;27.75;;;11.50;;
11287;SDS011;5700;50.996;7.044;2023-01-19T11:40:02;24.70;;;10.65;;
11287;SDS011;5700;50.996;7.044;2023-01-19T11:43:10;31.83;;;12.68;;
11287;SDS011;5700;50.996;7.044;2023-01-19T11:46:12;22.85;;;9.93;;
11287;SDS011;5700;50.996;7.044;2023-01-19T11:49:17;27.30;;;10.35;;
11287;SDS011;5700;50.996;7.044;2023-01-19T11:52:23;23.80;;;10.73;;
11287;SDS011;5700;50.996;7.044;2023-01-19T11:55:27;28.15;;;11.38;;
11287;SDS011;5700;50.996;7.044;2023-01-19T11:58:36;19.02;;;9.95;;
11287;SDS011;5700;50.996;7.044;2023-01-19T12:01:39;23.35;;;10.85;;
11287;SDS011;5700;50.996;7.044;2023-01-19T12:04:46;28.23;;;12.02;;
11287;SDS011;5700;50.996;7.044;2023-01-19T12:07:49;24.05;;;10.45;;
11287;SDS011;5700;50.996;7.044;2023-01-19T12:10:53;26.67;;;11.05;;
11287;SDS011;5700;50.996;7.044;2023-01-19T12:13:56;29.55;;;10.63;;
11287;SDS011;5700;50.996;7.044;2023-01-19T12:16:58;28.83;;;11.57;;
11287;SDS011;5700;50.996;7.044;2023-01-19T12:20:04;23.75;;;10.30;;
11287;SDS011;5700;50.996;7.044;2023-01-19T12:23:12;27.02;;;11.10;;
11287;SDS011;5700;50.996;7.044;2023-01-19T12:26:24;26.05;;;10.73;;
11287;SDS011;5700;50.996;7.044;2023-01-19T12:29:28;27.15;;;11.60;;
11287;SDS011;5700;50.996;7.044;2023-01-19T12:32:32;26.73;;;10.65;;
11287;SDS011;5700;50.996;7.044;2023-01-19T12:38:56;25.48;;;9.65;;
11287;SDS011;5700;50.996;7.044;2023-01-19T12:42:03;27.27;;;10.63;;
11287;SDS011;5700;50.996;7.044;2023-01-19T12:45:07;27.17;;;9.98;;
11287;SDS011;5700;50.996;7.044;2023-01-19T12:48:22;27.17;;;10.60;;
11287;SDS011;5700;50.996;7.044;2023-01-19T12:51:25;27.77;;;11.52;;
11287;SDS011;5700;50.996;7.044;2023-01-19T12:54:27;27.38;;;10.70;;
11287;SDS011;5700;50.996;7.044;2023-01-19T12:57:31;23.33;;;10.88;;
11287;SDS011;5700;50.996;7.044;2023-01-19T13:00:36;26.23;;;10.00;;
11287;SDS011;5700;50.996;7.044;2023-01-19T13:03:41;19.70;;;8.85;;
11287;SDS011;5700;50.996;7.044;2023-01-19T13:13:45;26.00;;;9.68;;
11287;SDS011;5700;50.996;7.044;2023-01-19T13:17:23;19.02;;;9.38;;
11287;SDS011;5700;50.996;7.044;2023-01-19T13:20:27;28.30;;;10.35;;
11287;SDS011;5700;50.996;7.044;2023-01-19T13:23:50;21.77;;;10.02;;
11287;SDS011;5700;50.996;7.044;2023-01-19T13:26:54;24.02;;;10.07;;
11287;SDS011;5700;50.996;7.044;2023-01-19T13:30:03;27.17;;;9.70;;
11287;SDS011;5700;50.996;7.044;2023-01-19T13:33:13;23.55;;;8.88;;
11287;SDS011;5700;50.996;7.044;2023-01-19T13:36:20;21.50;;;9.15;;
11287;SDS011;5700;50.996;7.044;2023-01-19T13:39:26;20.58;;;9.55;;
11287;SDS011;5700;50.996;7.044;2023-01-19T13:42:30;22.80;;;9.93;;
11287;SDS011;5700;50.996;7.044;2023-01-19T13:45:34;22.40;;;8.32;;
11287;SDS011;5700;50.996;7.044;2023-01-19T13:48:40;22.00;;;8.52;;
11287;SDS011;5700;50.996;7.044;2023-01-19T13:55:13;22.75;;;8.60;;
11287;SDS011;5700;50.996;7.044;2023-01-19T13:58:22;26.45;;;8.60;;
11287;SDS011;5700;50.996;7.044;2023-01-19T14:01:25;15.73;;;8.70;;
11287;SDS011;5700;50.996;7.044;2023-01-19T14:04:28;21.63;;;7.80;;
11287;SDS011;5700;50.996;7.044;2023-01-19T14:07:31;18.17;;;7.45;;
11287;SDS011;5700;50.996;7.044;2023-01-19T14:10:33;19.65;;;9.13;;
11287;SDS011;5700;50.996;7.044;2023-01-19T14:13:35;19.33;;;7.93;;
11287;SDS011;5700;50.996;7.044;2023-01-19T14:16:39;18.80;;;8.48;;
11287;SDS011;5700;50.996;7.044;2023-01-19T14:19:49;27.60;;;9.57;;
11287;SDS011;5700;50.996;7.044;2023-01-19T14:22:51;16.08;;;7.43;;
11287;SDS011;5700;50.996;7.044;2023-01-19T14:25:52;18.38;;;8.88;;
11287;SDS011;5700;50.996;7.044;2023-01-19T14:28:54;19.52;;;9.23;;
11287;SDS011;5700;50.996;7.044;2023-01-19T14:32:04;22.92;;;9.00;;
11287;SDS011;5700;50.996;7.044;2023-01-19T14:35:13;16.83;;;8.23;;
11287;SDS011;5700;50.996;7.044;2023-01-19T14:38:15;20.13;;;8.70;;
11287;SDS011;5700;50.996;7.044;2023-01-19T14:41:21;18.55;;;9.05;;
11287;SDS011;5700;50.996;7.044;2023-01-19T14:44:25;19.27;;;6.78;;
11287;SDS011;5700;50.996;7.044;2023-01-19T14:47:31;19.73;;;8.73;;
11287;SDS011;5700;50.996;7.044;2023-01-19T14:50:36;13.38;;;7.70;;
11287;SDS011;5700;50.996;7.044;2023-01-19T14:53:39;20.27;;;9.27;;
11287;SDS011;5700;50.996;7.044;2023-01-19T14:56:47;20.17;;;8.48;;
11287;SDS011;5700;50.996;7.044;2023-01-19T14:59:48;17.75;;;8.38;;
11287;SDS011;5700;50.996;7.044;2023-01-19T15:02:51;16.88;;;8.02;;
11287;SDS011;5700;50.996;7.044;2023-01-19T15:05:54;16.85;;;8.13;;
11287;SDS011;5700;50.996;7.044;2023-01-19T15:08:55;19.15;;;8.60;;
11287;SDS011;5700;50.996;7.044;2023-01-19T15:11:58;14.10;;;7.70;;
11287;SDS011;5700;50.996;7.044;2023-01-19T15:14:59;16.42;;;8.23;;
11287;SDS011;5700;50.996;7.044;2023-01-19T15:18:01;17.48;;;8.07;;
11287;SDS011;5700;50.996;7.044;2023-01-19T15:21:07;15.60;;;7.90;;
11287;SDS011;5700;50.996;7.044;2023-01-19T15:24:11;17.75;;;8.30;;
11287;SDS011;5700;50.996;7.044;2023-01-19T15:27:13;20.73;;;8.30;;
11287;SDS011;5700;50.996;7.044;2023-01-19T15:30:15;20.55;;;8.73;;
11287;SDS011;5700;50.996;7.044;2023-01-19T15:33:18;17.95;;;9.05;;
11287;SDS011;5700;50.996;7.044;2023-01-19T15:36:23;15.45;;;8.38;;
11287;SDS011;5700;50.996;7.044;2023-01-19T15:39:25;15.80;;;8.00;;
11287;SDS011;5700;50.996;7.044;2023-01-19T15:42:26;14.05;;;7.20;;
11287;SDS011;5700;50.996;7.044;2023-01-19T15:45:32;15.80;;;7.88;;
11287;SDS011;5700;50.996;7.044;2023-01-19T15:48:35;14.25;;;7.70;;
11287;SDS011;5700;50.996;7.044;2023-01-19T15:51:38;16.90;;;7.10;;
11287;SDS011;5700;50.996;7.044;2023-01-19T15:54:39;21.83;;;9.65;;
11287;SDS011;5700;50.996;7.044;2023-01-19T15:57:41;15.40;;;8.30;;
11287;SDS011;5700;50.996;7.044;2023-01-19T16:00:42;26.23;;;13.02;;
11287;SDS011;5700;50.996;7.044;2023-01-19T16:03:44;26.88;;;11.23;;
11287;SDS011;5700;50.996;7.044;2023-01-19T16:06:47;53.00;;;25.10;;
11287;SDS011;5700;50.996;7.044;2023-01-19T16:09:49;30.98;;;14.45;;
11287;SDS011;5700;50.996;7.044;2023-01-19T16:12:51;20.77;;;11.02;;
11287;SDS011;5700;50.996;7.044;2023-01-19T16:15:52;17.63;;;9.13;;
11287;SDS011;5700;50.996;7.044;2023-01-19T16:18:54;27.13;;;12.32;;
11287;SDS011;5700;50.996;7.044;2023-01-19T16:21:57;26.48;;;13.15;;
11287;SDS011;5700;50.996;7.044;2023-01-19T16:24:58;25.65;;;12.70;;
11287;SDS011;5700;50.996;7.044;2023-01-19T16:28:00;23.63;;;11.07;;
11287;SDS011;5700;50.996;7.044;2023-01-19T16:31:02;29.55;;;11.57;;
11287;SDS011;5700;50.996;7.044;2023-01-19T16:34:03;31.48;;;12.25;;
11287;SDS011;5700;50.996;7.044;2023-01-19T16:37:06;12.90;;;7.25;;
11287;SDS011;5700;50.996;7.044;2023-01-19T16:40:08;24.88;;;11.85;;
11287;SDS011;5700;50.996;7.044;2023-01-19T16:43:10;17.10;;;7.45;;
11287;SDS011;5700;50.996;7.044;2023-01-19T16:46:15;11.75;;;6.82;;
11287;SDS011;5700;50.996;7.044;2023-01-19T16:49:19;17.67;;;9.57;;
11287;SDS011;5700;50.996;7.044;2023-01-19T16:52:23;15.73;;;7.55;;
11287;SDS011;5700;50.996;7.044;2023-01-19T16:55:25;16.42;;;8.13;;
11287;SDS011;5700;50.996;7.044;2023-01-19T16:58:26;15.43;;;7.93;;
11287;SDS011;5700;50.996;7.044;2023-01-19T17:01:28;14.88;;;7.55;;
11287;SDS011;5700;50.996;7.044;2023-01-19T17:04:30;14.52;;;7.70;;
11287;SDS011;5700;50.996;7.044;2023-01-19T17:07:32;12.55;;;6.32;;
11287;SDS011;5700;50.996;7.044;2023-01-19T17:10:34;11.30;;;5.78;;
11287;SDS011;5700;50.996;7.044;2023-01-19T17:13:36;12.45;;;6.88;;
11287;SDS011;5700;50.996;7.044;2023-01-19T17:16:38;13.77;;;6.68;;
11287;SDS011;5700;50.996;7.044;2023-01-19T17:19:39;12.55;;;5.95;;
11287;SDS011;5700;50.996;7.044;2023-01-19T17:22:42;13.32;;;6.80;;
11287;SDS011;5700;50.996;7.044;2023-01-19T17:25:50;16.77;;;7.22;;
11287;SDS011;5700;50.996;7.044;2023-01-19T17:28:56;15.95;;;7.10;;
11287;SDS011;5700;50.996;7.044;2023-01-19T17:31:58;11.40;;;5.88;;
11287;SDS011;5700;50.996;7.044;2023-01-19T17:34:59;15.32;;;7.47;;
11287;SDS011;5700;50.996;7.044;2023-01-19T17:38:02;17.23;;;7.75;;
11287;SDS011;5700;50.996;7.044;2023-01-19T17:41:10;17.08;;;9.15;;
11287;SDS011;5700;50.996;7.044;2023-01-19T17:44:12;17.27;;;8.70;;
11287;SDS011;5700;50.996;7.044;2023-01-19T17:47:14;18.40;;;9.20;;
11287;SDS011;5700;50.996;7.044;2023-01-19T17:50:15;21.35;;;9.73;;
11287;SDS011;5700;50.996;7.044;2023-01-19T17:53:18;18.55;;;8.98;;
11287;SDS011;5700;50.996;7.044;2023-01-19T17:56:20;18.25;;;9.18;;
11287;SDS011;5700;50.996;7.044;2023-01-19T17:59:25;20.55;;;10.77;;
11287;SDS011;5700;50.996;7.044;2023-01-19T18:02:26;20.20;;;9.60;;
11287;SDS011;5700;50.996;7.044;2023-01-19T18:05:28;18.23;;;9.85;;
11287;SDS011;5700;50.996;7.044;2023-01-19T18:08:31;20.63;;;9.95;;
11287;SDS011;5700;50.996;7.044;2023-01-19T18:11:33;25.30;;;12.43;;
11287;SDS011;5700;50.996;7.044;2023-01-19T18:14:35;25.40;;;11.40;;
11287;SDS011;5700;50.996;7.044;2023-01-19T18:17:39;21.38;;;11.65;;
11287;SDS011;5700;50.996;7.044;2023-01-19T18:20:41;25.77;;;12.10;;
11287;SDS011;5700;50.996;7.044;2023-01-19T18:23:45;22.73;;;11.15;;
11287;SDS011;5700;50.996;7.044;2023-01-19T18:26:46;23.30;;;12.68;;
11287;SDS011;5700;50.996;7.044;2023-01-19T18:29:47;26.90;;;12.95;;
11287;SDS011;5700;50.996;7.044;2023-01-19T18:32:49;29.48;;;13.00;;
11287;SDS011;5700;50.996;7.044;2023-01-19T18:35:51;25.35;;;13.15;;
11287;SDS011;5700;50.996;7.044;2023-01-19T18:38:53;25.90;;;12.48;;
11287;SDS011;5700;50.996;7.044;2023-01-19T18:41:55;24.67;;;10.07;;